sensor_id;sensor_type;location;lat;lon;timestamp;P1;durP1;ratioP1;P2;durP2;ratioP2
21270;SDS011;10795;50.796;3.860;2022-07-17T00:00:37;5.05;;;2.20;;
21270;SDS011;10795;50.796;3.860;2022-07-17T00:03:07;4.55;;;1.92;;
21270;SDS011;10795;50.796;3.860;2022-07-17T00:05:37;6.47;;;2.20;;
21270;SDS011;10795;50.796;3.860;2022-07-17T00:08:07;4.35;;;2.50;;
21270;SDS011;10795;50.796;3.860;2022-07-17T00:10:37;2.53;;;1.98;;
21270;SDS011;10795;50.796;3.860;2022-07-17T00:13:04;3.58;;;2.20;;
21270;SDS011;10795;50.796;3.860;2022-07-17T00:15:30;2.72;;;1.98;;
21270;SDS011;10795;50.796;3.860;2022-07-17T00:17:57;3.75;;;1.75;;
21270;SDS011;10795;50.796;3.860;2022-07-17T00:20:22;1.80;;;1.70;;
21270;SDS011;10795;50.796;3.860;2022-07-17T00:22:56;2.70;;;1.75;;
21270;SDS011;10795;50.796;3.860;2022-07-17T00:25:23;2.53;;;1.63;;
21270;SDS011;10795;50.796;3.860;2022-07-17T00:27:49;3.42;;;1.92;;
21270;SDS011;10795;50.796;3.860;2022-07-17T00:30:17;5.03;;;1.98;;
21270;SDS011;10795;50.796;3.860;2022-07-17T00:32:43;4.15;;;2.00;;
21270;SDS011;10795;50.796;3.860;2022-07-17T00:35:10;2.25;;;2.05;;
21270;SDS011;10795;50.796;3.860;2022-07-17T00:37:43;2.85;;;2.05;;
21270;SDS011;10795;50.796;3.860;2022-07-17T00:40:11;3.30;;;1.85;;
21270;SDS011;10795;50.796;3.860;2022-07-17T00:42:39;3.38;;;2.00;;
21270;SDS011;10795;50.796;3.860;2022-07-17T00:45:09;6.05;;;2.88;;
21270;SDS011;10795;50.796;3.860;2022-07-17T00:50:17;4.20;;;2.63;;
21270;SDS011;10795;50.796;3.860;2022-07-17T00:52:43;4.93;;;2.28;;
21270;SDS011;10795;50.796;3.860;2022-07-17T00:55:10;2.67;;;2.10;;
21270;SDS011;10795;50.796;3.860;2022-07-17T00:57:37;4.78;;;2.10;;
21270;SDS011;10795;50.796;3.860;2022-07-17T01:00:05;2.10;;;1.70;;
21270;SDS011;10795;50.796;3.860;2022-07-17T01:02:36;1.67;;;1.58;;
21270;SDS011;10795;50.796;3.860;2022-07-17T01:05:03;2.40;;;1.60;;
21270;SDS011;10795;50.796;3.860;2022-07-17T01:07:29;1.77;;;1.30;;
21270;SDS011;10795;50.796;3.860;2022-07-17T01:09:55;1.73;;;1.60;;
21270;SDS011;10795;50.796;3.860;2022-07-17T01:12:21;1.50;;;1.40;;
21270;SDS011;10795;50.796;3.860;2022-07-17T01:14:48;5.53;;;1.85;;
21270;SDS011;10795;50.796;3.860;2022-07-17T01:17:15;4.55;;;2.05;;
21270;SDS011;10795;50.796;3.860;2022-07-17T01:19:44;4.00;;;2.00;;
21270;SDS011;10795;50.796;3.860;2022-07-17T01:22:10;2.53;;;1.88;;
21270;SDS011;10795;50.796;3.860;2022-07-17T01:24:39;3.97;;;1.87;;
21270;SDS011;10795;50.796;3.860;2022-07-17T01:27:06;3.17;;;2.00;;
21270;SDS011;10795;50.796;3.860;2022-07-17T01:29:32;3.35;;;2.40;;
21270;SDS011;10795;50.796;3.860;2022-07-17T01:32:01;5.13;;;2.45;;
21270;SDS011;10795;50.796;3.860;2022-07-17T01:34:27;4.25;;;2.40;;
21270;SDS011;10795;50.796;3.860;2022-07-17T01:36:53;4.43;;;2.47;;
21270;SDS011;10795;50.796;3.860;2022-07-17T01:39:18;4.10;;;2.20;;
21270;SDS011;10795;50.796;3.860;2022-07-17T01:42:04;2.95;;;2.10;;
21270;SDS011;10795;50.796;3.860;2022-07-17T01:44:30;3.63;;;2.20;;
21270;SDS011;10795;50.796;3.860;2022-07-17T01:46:55;4.35;;;1.95;;
21270;SDS011;10795;50.796;3.860;2022-07-17T01:49:21;2.92;;;1.90;;
21270;SDS011;10795;50.796;3.860;2022-07-17T01:51:47;2.88;;;1.85;;
21270;SDS011;10795;50.796;3.860;2022-07-17T01:54:15;3.03;;;2.08;;
21270;SDS011;10795;50.796;3.860;2022-07-17T01:56:41;2.45;;;1.50;;
21270;SDS011;10795;50.796;3.860;2022-07-17T01:59:06;3.50;;;1.40;;
21270;SDS011;10795;50.796;3.860;2022-07-17T02:04:02;1.80;;;1.70;;
21270;SDS011;10795;50.796;3.860;2022-07-17T02:06:28;9.88;;;1.67;;
21270;SDS011;10795;50.796;3.860;2022-07-17T02:08:54;7.32;;;2.35;;
21270;SDS011;10795;50.796;3.860;2022-07-17T02:11:19;5.22;;;2.58;;
21270;SDS011;10795;50.796;3.860;2022-07-17T02:13:45;3.22;;;2.10;;
21270;SDS011;10795;50.796;3.860;2022-07-17T02:16:11;4.93;;;1.90;;
21270;SDS011;10795;50.796;3.860;2022-07-17T02:18:36;3.10;;;1.80;;
21270;SDS011;10795;50.796;3.860;2022-07-17T02:21:02;3.78;;;1.70;;
21270;SDS011;10795;50.796;3.860;2022-07-17T02:23:28;2.90;;;2.00;;
21270;SDS011;10795;50.796;3.860;2022-07-17T02:25:54;3.63;;;1.67;;
21270;SDS011;10795;50.796;3.860;2022-07-17T02:28:20;9.07;;;1.88;;
21270;SDS011;10795;50.796;3.860;2022-07-17T02:30:46;4.43;;;1.80;;
21270;SDS011;10795;50.796;3.860;2022-07-17T02:33:12;1.90;;;1.60;;
21270;SDS011;10795;50.796;3.860;2022-07-17T02:35:38;3.75;;;1.50;;
21270;SDS011;10795;50.796;3.860;2022-07-17T02:38:04;4.00;;;1.60;;
21270;SDS011;10795;50.796;3.860;2022-07-17T02:40:30;3.08;;;1.88;;
21270;SDS011;10795;50.796;3.860;2022-07-17T02:42:56;4.35;;;2.65;;
21270;SDS011;10795;50.796;3.860;2022-07-17T02:45:22;2.83;;;2.08;;
21270;SDS011;10795;50.796;3.860;2022-07-17T02:47:52;3.22;;;2.20;;
21270;SDS011;10795;50.796;3.860;2022-07-17T02:50:22;3.97;;;2.20;;
21270;SDS011;10795;50.796;3.860;2022-07-17T02:52:48;4.18;;;1.98;;
21270;SDS011;10795;50.796;3.860;2022-07-17T02:55:14;2.92;;;2.25;;
21270;SDS011;10795;50.796;3.860;2022-07-17T02:57:46;3.58;;;2.13;;
21270;SDS011;10795;50.796;3.860;2022-07-17T03:00:13;2.90;;;2.20;;
21270;SDS011;10795;50.796;3.860;2022-07-17T03:02:44;2.28;;;1.90;;
21270;SDS011;10795;50.796;3.860;2022-07-17T03:05:11;3.20;;;2.03;;
21270;SDS011;10795;50.796;3.860;2022-07-17T03:07:44;3.08;;;2.15;;
21270;SDS011;10795;50.796;3.860;2022-07-17T03:10:10;2.95;;;2.20;;
21270;SDS011;10795;50.796;3.860;2022-07-17T03:12:39;3.70;;;2.10;;
21270;SDS011;10795;50.796;3.860;2022-07-17T03:15:05;5.75;;;2.00;;
21270;SDS011;10795;50.796;3.860;2022-07-17T03:17:32;3.85;;;2.10;;
21270;SDS011;10795;50.796;3.860;2022-07-17T03:19:58;6.40;;;2.47;;
21270;SDS011;10795;50.796;3.860;2022-07-17T03:22:24;2.90;;;2.30;;
21270;SDS011;10795;50.796;3.860;2022-07-17T03:24:50;5.50;;;2.60;;
21270;SDS011;10795;50.796;3.860;2022-07-17T03:27:16;3.65;;;1.95;;
21270;SDS011;10795;50.796;3.860;2022-07-17T03:29:42;3.22;;;1.92;;
21270;SDS011;10795;50.796;3.860;2022-07-17T03:32:08;4.28;;;1.85;;
21270;SDS011;10795;50.796;3.860;2022-07-17T03:34:35;1.98;;;1.70;;
21270;SDS011;10795;50.796;3.860;2022-07-17T03:37:02;5.30;;;2.13;;
21270;SDS011;10795;50.796;3.860;2022-07-17T03:39:29;6.55;;;2.60;;
21270;SDS011;10795;50.796;3.860;2022-07-17T03:41:54;5.78;;;2.38;;
21270;SDS011;10795;50.796;3.860;2022-07-17T03:44:21;3.08;;;2.42;;
21270;SDS011;10795;50.796;3.860;2022-07-17T03:46:47;2.70;;;2.40;;
21270;SDS011;10795;50.796;3.860;2022-07-17T03:49:12;3.55;;;2.78;;
21270;SDS011;10795;50.796;3.860;2022-07-17T03:51:38;3.22;;;2.33;;
21270;SDS011;10795;50.796;3.860;2022-07-17T03:54:04;4.03;;;1.83;;
21270;SDS011;10795;50.796;3.860;2022-07-17T03:56:30;3.72;;;2.33;;
21270;SDS011;10795;50.796;3.860;2022-07-17T03:58:56;4.57;;;1.98;;
21270;SDS011;10795;50.796;3.860;2022-07-17T04:01:22;3.83;;;2.13;;
21270;SDS011;10795;50.796;3.860;2022-07-17T04:03:48;5.60;;;2.58;;
21270;SDS011;10795;50.796;3.860;2022-07-17T04:06:13;4.32;;;2.53;;
21270;SDS011;10795;50.796;3.860;2022-07-17T04:08:39;5.85;;;2.85;;
21270;SDS011;10795;50.796;3.860;2022-07-17T04:11:05;2.90;;;2.40;;
21270;SDS011;10795;50.796;3.860;2022-07-17T04:13:31;3.80;;;2.50;;
21270;SDS011;10795;50.796;3.860;2022-07-17T04:15:56;8.45;;;2.30;;
21270;SDS011;10795;50.796;3.860;2022-07-17T04:18:23;3.97;;;2.42;;
21270;SDS011;10795;50.796;3.860;2022-07-17T04:21:01;2.50;;;2.30;;
21270;SDS011;10795;50.796;3.860;2022-07-17T04:23:29;4.28;;;2.03;;
21270;SDS011;10795;50.796;3.860;2022-07-17T04:25:55;2.60;;;2.40;;
21270;SDS011;10795;50.796;3.860;2022-07-17T04:28:21;2.25;;;1.80;;
21270;SDS011;10795;50.796;3.860;2022-07-17T04:30:47;3.03;;;2.00;;
21270;SDS011;10795;50.796;3.860;2022-07-17T04:33:13;5.50;;;2.58;;
21270;SDS011;10795;50.796;3.860;2022-07-17T04:35:39;6.10;;;2.67;;
21270;SDS011;10795;50.796;3.860;2022-07-17T04:38:05;4.30;;;3.00;;
21270;SDS011;10795;50.796;3.860;2022-07-17T04:40:33;4.93;;;2.90;;
21270;SDS011;10795;50.796;3.860;2022-07-17T04:42:59;5.43;;;3.25;;
21270;SDS011;10795;50.796;3.860;2022-07-17T04:45:28;4.68;;;3.15;;
21270;SDS011;10795;50.796;3.860;2022-07-17T04:47:55;3.33;;;2.70;;
21270;SDS011;10795;50.796;3.860;2022-07-17T04:50:21;2.50;;;2.30;;
21270;SDS011;10795;50.796;3.860;2022-07-17T04:52:47;3.60;;;2.05;;
21270;SDS011;10795;50.796;3.860;2022-07-17T04:55:13;4.82;;;2.30;;
21270;SDS011;10795;50.796;3.860;2022-07-17T04:57:38;4.63;;;2.03;;
21270;SDS011;10795;50.796;3.860;2022-07-17T05:00:06;2.03;;;1.92;;
21270;SDS011;10795;50.796;3.860;2022-07-17T05:02:33;2.78;;;2.00;;
21270;SDS011;10795;50.796;3.860;2022-07-17T05:04:59;4.40;;;2.10;;
21270;SDS011;10795;50.796;3.860;2022-07-17T05:07:26;2.63;;;2.05;;
21270;SDS011;10795;50.796;3.860;2022-07-17T05:09:51;3.38;;;2.08;;
21270;SDS011;10795;50.796;3.860;2022-07-17T05:12:17;3.15;;;2.30;;
21270;SDS011;10795;50.796;3.860;2022-07-17T05:14:43;3.58;;;2.28;;
21270;SDS011;10795;50.796;3.860;2022-07-17T05:17:09;4.88;;;2.55;;
21270;SDS011;10795;50.796;3.860;2022-07-17T05:19:35;8.82;;;2.80;;
21270;SDS011;10795;50.796;3.860;2022-07-17T05:22:01;3.38;;;2.17;;
21270;SDS011;10795;50.796;3.860;2022-07-17T05:24:27;3.70;;;2.42;;
21270;SDS011;10795;50.796;3.860;2022-07-17T05:26:53;3.22;;;2.53;;
21270;SDS011;10795;50.796;3.860;2022-07-17T05:29:19;7.22;;;2.65;;
21270;SDS011;10795;50.796;3.860;2022-07-17T05:31:45;6.13;;;2.83;;
21270;SDS011;10795;50.796;3.860;2022-07-17T05:34:11;4.00;;;2.58;;
21270;SDS011;10795;50.796;3.860;2022-07-17T05:36:37;6.88;;;3.10;;
21270;SDS011;10795;50.796;3.860;2022-07-17T05:39:03;7.45;;;2.97;;
21270;SDS011;10795;50.796;3.860;2022-07-17T05:41:29;3.90;;;2.80;;
21270;SDS011;10795;50.796;3.860;2022-07-17T05:43:54;6.95;;;3.13;;
21270;SDS011;10795;50.796;3.860;2022-07-17T05:46:20;6.10;;;3.08;;
21270;SDS011;10795;50.796;3.860;2022-07-17T05:48:46;5.78;;;2.90;;
21270;SDS011;10795;50.796;3.860;2022-07-17T05:51:12;3.75;;;2.50;;
21270;SDS011;10795;50.796;3.860;2022-07-17T05:53:40;5.22;;;2.80;;
21270;SDS011;10795;50.796;3.860;2022-07-17T05:56:06;3.95;;;2.80;;
21270;SDS011;10795;50.796;3.860;2022-07-17T05:58:32;6.10;;;3.00;;
21270;SDS011;10795;50.796;3.860;2022-07-17T06:00:57;12.35;;;3.20;;
21270;SDS011;10795;50.796;3.860;2022-07-17T06:03:23;4.13;;;3.10;;
21270;SDS011;10795;50.796;3.860;2022-07-17T06:05:49;5.72;;;3.13;;
21270;SDS011;10795;50.796;3.860;2022-07-17T06:08:15;5.53;;;3.10;;
21270;SDS011;10795;50.796;3.860;2022-07-17T06:10:40;6.40;;;2.83;;
21270;SDS011;10795;50.796;3.860;2022-07-17T06:13:06;6.05;;;2.83;;
21270;SDS011;10795;50.796;3.860;2022-07-17T06:15:32;6.60;;;2.78;;
21270;SDS011;10795;50.796;3.860;2022-07-17T06:18:01;7.55;;;3.40;;
21270;SDS011;10795;50.796;3.860;2022-07-17T06:20:27;5.00;;;3.22;;
21270;SDS011;10795;50.796;3.860;2022-07-17T06:22:54;5.90;;;2.83;;
21270;SDS011;10795;50.796;3.860;2022-07-17T06:25:19;6.00;;;3.10;;
21270;SDS011;10795;50.796;3.860;2022-07-17T06:27:45;5.65;;;1.70;;
21270;SDS011;10795;50.796;3.860;2022-07-17T06:30:14;5.80;;;1.92;;
21270;SDS011;10795;50.796;3.860;2022-07-17T06:32:41;3.60;;;2.47;;
21270;SDS011;10795;50.796;3.860;2022-07-17T06:35:07;7.53;;;2.50;;
21270;SDS011;10795;50.796;3.860;2022-07-17T06:37:34;5.45;;;2.85;;
21270;SDS011;10795;50.796;3.860;2022-07-17T06:40:00;7.57;;;2.45;;
21270;SDS011;10795;50.796;3.860;2022-07-17T06:42:26;5.63;;;2.45;;
21270;SDS011;10795;50.796;3.860;2022-07-17T06:44:52;2.33;;;1.20;;
21270;SDS011;10795;50.796;3.860;2022-07-17T06:47:18;8.43;;;3.22;;
21270;SDS011;10795;50.796;3.860;2022-07-17T06:49:44;4.07;;;1.60;;
21270;SDS011;10795;50.796;3.860;2022-07-17T06:52:10;5.82;;;2.20;;
21270;SDS011;10795;50.796;3.860;2022-07-17T06:54:35;2.38;;;1.30;;
21270;SDS011;10795;50.796;3.860;2022-07-17T06:57:01;2.72;;;1.20;;
21270;SDS011;10795;50.796;3.860;2022-07-17T06:59:27;4.93;;;1.85;;
21270;SDS011;10795;50.796;3.860;2022-07-17T07:01:53;2.83;;;1.30;;
21270;SDS011;10795;50.796;3.860;2022-07-17T07:04:18;4.18;;;1.67;;
21270;SDS011;10795;50.796;3.860;2022-07-17T07:06:44;3.95;;;1.33;;
21270;SDS011;10795;50.796;3.860;2022-07-17T07:09:10;2.00;;;1.13;;
21270;SDS011;10795;50.796;3.860;2022-07-17T07:11:38;7.93;;;2.00;;
21270;SDS011;10795;50.796;3.860;2022-07-17T07:14:05;3.97;;;1.35;;
21270;SDS011;10795;50.796;3.860;2022-07-17T07:16:32;3.08;;;1.13;;
21270;SDS011;10795;50.796;3.860;2022-07-17T07:18:58;4.95;;;1.67;;
21270;SDS011;10795;50.796;3.860;2022-07-17T07:21:24;1.52;;;0.70;;
21270;SDS011;10795;50.796;3.860;2022-07-17T07:23:51;2.28;;;1.17;;
21270;SDS011;10795;50.796;3.860;2022-07-17T07:26:18;3.53;;;1.30;;
21270;SDS011;10795;50.796;3.860;2022-07-17T07:28:44;1.42;;;0.80;;
21270;SDS011;10795;50.796;3.860;2022-07-17T07:31:09;2.47;;;1.17;;
21270;SDS011;10795;50.796;3.860;2022-07-17T07:33:36;2.72;;;1.20;;
21270;SDS011;10795;50.796;3.860;2022-07-17T07:36:02;3.83;;;1.20;;
21270;SDS011;10795;50.796;3.860;2022-07-17T07:38:28;2.53;;;0.90;;
21270;SDS011;10795;50.796;3.860;2022-07-17T07:40:54;6.95;;;1.70;;
21270;SDS011;10795;50.796;3.860;2022-07-17T07:43:20;4.22;;;2.03;;
21270;SDS011;10795;50.796;3.860;2022-07-17T07:45:46;4.63;;;1.00;;
21270;SDS011;10795;50.796;3.860;2022-07-17T07:48:12;8.85;;;2.10;;
21270;SDS011;10795;50.796;3.860;2022-07-17T07:50:38;2.00;;;1.15;;
21270;SDS011;10795;50.796;3.860;2022-07-17T07:53:06;5.05;;;1.70;;
21270;SDS011;10795;50.796;3.860;2022-07-17T07:55:32;3.30;;;1.63;;
21270;SDS011;10795;50.796;3.860;2022-07-17T07:58:02;4.45;;;1.70;;
21270;SDS011;10795;50.796;3.860;2022-07-17T08:00:28;3.80;;;1.30;;
21270;SDS011;10795;50.796;3.860;2022-07-17T08:02:54;4.50;;;1.50;;
21270;SDS011;10795;50.796;3.860;2022-07-17T08:05:20;3.50;;;1.30;;
21270;SDS011;10795;50.796;3.860;2022-07-17T08:07:46;3.53;;;1.70;;
21270;SDS011;10795;50.796;3.860;2022-07-17T08:10:12;5.75;;;1.45;;
21270;SDS011;10795;50.796;3.860;2022-07-17T08:12:37;4.75;;;1.60;;
21270;SDS011;10795;50.796;3.860;2022-07-17T08:15:04;4.38;;;1.50;;
21270;SDS011;10795;50.796;3.860;2022-07-17T08:17:31;2.75;;;1.05;;
21270;SDS011;10795;50.796;3.860;2022-07-17T08:19:56;5.80;;;1.65;;
21270;SDS011;10795;50.796;3.860;2022-07-17T08:22:22;5.00;;;1.48;;
21270;SDS011;10795;50.796;3.860;2022-07-17T08:24:48;2.53;;;1.13;;
21270;SDS011;10795;50.796;3.860;2022-07-17T08:27:14;3.10;;;1.40;;
21270;SDS011;10795;50.796;3.860;2022-07-17T08:29:39;4.60;;;1.70;;
21270;SDS011;10795;50.796;3.860;2022-07-17T08:32:05;2.70;;;1.23;;
21270;SDS011;10795;50.796;3.860;2022-07-17T08:34:31;2.55;;;1.20;;
21270;SDS011;10795;50.796;3.860;2022-07-17T08:36:57;3.33;;;1.27;;
21270;SDS011;10795;50.796;3.860;2022-07-17T08:39:23;3.92;;;1.17;;
21270;SDS011;10795;50.796;3.860;2022-07-17T08:41:48;4.68;;;1.25;;
21270;SDS011;10795;50.796;3.860;2022-07-17T08:44:14;4.88;;;1.55;;
21270;SDS011;10795;50.796;3.860;2022-07-17T08:46:40;2.60;;;1.27;;
21270;SDS011;10795;50.796;3.860;2022-07-17T08:49:06;2.05;;;0.88;;
21270;SDS011;10795;50.796;3.860;2022-07-17T08:51:33;3.08;;;1.02;;
21270;SDS011;10795;50.796;3.860;2022-07-17T08:53:59;2.78;;;0.98;;
21270;SDS011;10795;50.796;3.860;2022-07-17T08:56:26;6.18;;;1.23;;
21270;SDS011;10795;50.796;3.860;2022-07-17T08:58:53;3.03;;;1.20;;
21270;SDS011;10795;50.796;3.860;2022-07-17T09:01:20;5.97;;;1.48;;
21270;SDS011;10795;50.796;3.860;2022-07-17T09:03:57;6.18;;;1.35;;
21270;SDS011;10795;50.796;3.860;2022-07-17T09:06:31;2.65;;;1.10;;
21270;SDS011;10795;50.796;3.860;2022-07-17T09:09:02;2.25;;;0.75;;
21270;SDS011;10795;50.796;3.860;2022-07-17T09:11:51;2.70;;;0.70;;
21270;SDS011;10795;50.796;3.860;2022-07-17T09:14:18;3.78;;;1.02;;
21270;SDS011;10795;50.796;3.860;2022-07-17T09:22:16;3.03;;;1.25;;
21270;SDS011;10795;50.796;3.860;2022-07-17T09:27:09;1.63;;;0.82;;
21270;SDS011;10795;50.796;3.860;2022-07-17T09:29:48;2.20;;;1.30;;
21270;SDS011;10795;50.796;3.860;2022-07-17T09:32:24;4.50;;;1.20;;
21270;SDS011;10795;50.796;3.860;2022-07-17T09:34:52;1.80;;;0.95;;
21270;SDS011;10795;50.796;3.860;2022-07-17T09:37:19;2.13;;;1.00;;
21270;SDS011;10795;50.796;3.860;2022-07-17T09:39:48;3.13;;;1.63;;
21270;SDS011;10795;50.796;3.860;2022-07-17T09:42:28;1.13;;;1.02;;
21270;SDS011;10795;50.796;3.860;2022-07-17T09:47:24;4.38;;;1.23;;
21270;SDS011;10795;50.796;3.860;2022-07-17T09:49:54;2.55;;;1.48;;
21270;SDS011;10795;50.796;3.860;2022-07-17T09:52:22;4.55;;;1.30;;
21270;SDS011;10795;50.796;3.860;2022-07-17T09:54:49;4.23;;;1.57;;
21270;SDS011;10795;50.796;3.860;2022-07-17T09:57:19;2.88;;;1.42;;
21270;SDS011;10795;50.796;3.860;2022-07-17T09:59:49;3.60;;;1.70;;
21270;SDS011;10795;50.796;3.860;2022-07-17T10:02:16;6.57;;;1.75;;
21270;SDS011;10795;50.796;3.860;2022-07-17T10:04:44;3.22;;;1.70;;
21270;SDS011;10795;50.796;3.860;2022-07-17T10:07:11;3.47;;;1.30;;
21270;SDS011;10795;50.796;3.860;2022-07-17T10:09:38;4.25;;;1.77;;
21270;SDS011;10795;50.796;3.860;2022-07-17T10:12:05;3.65;;;2.17;;
21270;SDS011;10795;50.796;3.860;2022-07-17T10:14:31;3.08;;;1.75;;
21270;SDS011;10795;50.796;3.860;2022-07-17T10:17:07;5.00;;;2.03;;
21270;SDS011;10795;50.796;3.860;2022-07-17T10:19:33;3.40;;;2.17;;
21270;SDS011;10795;50.796;3.860;2022-07-17T10:22:08;2.97;;;1.70;;
21270;SDS011;10795;50.796;3.860;2022-07-17T10:24:44;4.05;;;1.60;;
21270;SDS011;10795;50.796;3.860;2022-07-17T10:27:28;6.93;;;2.20;;
21270;SDS011;10795;50.796;3.860;2022-07-17T10:30:05;3.72;;;2.00;;
21270;SDS011;10795;50.796;3.860;2022-07-17T10:32:32;5.38;;;2.00;;
21270;SDS011;10795;50.796;3.860;2022-07-17T10:35:06;2.53;;;1.65;;
21270;SDS011;10795;50.796;3.860;2022-07-17T10:37:38;4.43;;;2.10;;
21270;SDS011;10795;50.796;3.860;2022-07-17T10:40:06;3.97;;;1.80;;
21270;SDS011;10795;50.796;3.860;2022-07-17T10:45:07;5.10;;;1.88;;
21270;SDS011;10795;50.796;3.860;2022-07-17T10:53:09;4.80;;;2.05;;
21270;SDS011;10795;50.796;3.860;2022-07-17T10:55:43;2.63;;;1.70;;
21270;SDS011;10795;50.796;3.860;2022-07-17T10:58:17;2.50;;;1.70;;
21270;SDS011;10795;50.796;3.860;2022-07-17T11:00:43;2.83;;;1.67;;
21270;SDS011;10795;50.796;3.860;2022-07-17T11:03:20;3.72;;;2.13;;
21270;SDS011;10795;50.796;3.860;2022-07-17T11:05:46;3.63;;;2.03;;
21270;SDS011;10795;50.796;3.860;2022-07-17T11:08:11;2.42;;;2.13;;
21270;SDS011;10795;50.796;3.860;2022-07-17T11:10:39;4.35;;;2.42;;
21270;SDS011;10795;50.796;3.860;2022-07-17T11:13:14;5.20;;;2.17;;
21270;SDS011;10795;50.796;3.860;2022-07-17T11:15:45;4.70;;;2.60;;
21270;SDS011;10795;50.796;3.860;2022-07-17T11:18:13;3.22;;;2.42;;
21270;SDS011;10795;50.796;3.860;2022-07-17T11:20:52;2.60;;;1.85;;
21270;SDS011;10795;50.796;3.860;2022-07-17T11:23:20;3.90;;;2.22;;
21270;SDS011;10795;50.796;3.860;2022-07-17T11:26:06;3.93;;;2.30;;
21270;SDS011;10795;50.796;3.860;2022-07-17T11:30:58;2.55;;;2.00;;
21270;SDS011;10795;50.796;3.860;2022-07-17T11:33:25;3.92;;;2.20;;
21270;SDS011;10795;50.796;3.860;2022-07-17T11:35:51;4.25;;;2.00;;
21270;SDS011;10795;50.796;3.860;2022-07-17T11:38:23;2.33;;;1.55;;
21270;SDS011;10795;50.796;3.860;2022-07-17T11:40:50;4.07;;;2.20;;
21270;SDS011;10795;50.796;3.860;2022-07-17T11:43:16;4.47;;;1.52;;
21270;SDS011;10795;50.796;3.860;2022-07-17T11:45:43;2.72;;;1.75;;
21270;SDS011;10795;50.796;3.860;2022-07-17T11:48:09;3.28;;;1.98;;
21270;SDS011;10795;50.796;3.860;2022-07-17T11:50:35;4.85;;;2.60;;
21270;SDS011;10795;50.796;3.860;2022-07-17T11:53:03;3.33;;;2.25;;
21270;SDS011;10795;50.796;3.860;2022-07-17T11:55:36;2.67;;;2.17;;
21270;SDS011;10795;50.796;3.860;2022-07-17T11:58:03;1.98;;;1.75;;
21270;SDS011;10795;50.796;3.860;2022-07-17T12:00:29;3.38;;;2.33;;
21270;SDS011;10795;50.796;3.860;2022-07-17T12:03:02;3.60;;;2.47;;
21270;SDS011;10795;50.796;3.860;2022-07-17T12:05:30;2.95;;;2.10;;
21270;SDS011;10795;50.796;3.860;2022-07-17T12:07:57;2.72;;;2.15;;
21270;SDS011;10795;50.796;3.860;2022-07-17T12:10:24;2.65;;;2.20;;
21270;SDS011;10795;50.796;3.860;2022-07-17T12:12:58;3.63;;;2.42;;
21270;SDS011;10795;50.796;3.860;2022-07-17T12:18:05;2.85;;;1.80;;
21270;SDS011;10795;50.796;3.860;2022-07-17T12:20:45;3.83;;;2.40;;
21270;SDS011;10795;50.796;3.860;2022-07-17T12:26:20;2.80;;;2.00;;
21270;SDS011;10795;50.796;3.860;2022-07-17T12:28:46;2.80;;;2.05;;
21270;SDS011;10795;50.796;3.860;2022-07-17T12:31:12;2.92;;;1.83;;
21270;SDS011;10795;50.796;3.860;2022-07-17T12:33:41;3.63;;;2.35;;
21270;SDS011;10795;50.796;3.860;2022-07-17T12:36:08;6.78;;;2.15;;
21270;SDS011;10795;50.796;3.860;2022-07-17T12:38:34;3.85;;;2.70;;
21270;SDS011;10795;50.796;3.860;2022-07-17T12:41:00;3.67;;;2.40;;
21270;SDS011;10795;50.796;3.860;2022-07-17T12:43:26;3.50;;;2.00;;
21270;SDS011;10795;50.796;3.860;2022-07-17T12:45:52;3.10;;;2.22;;
21270;SDS011;10795;50.796;3.860;2022-07-17T12:48:18;5.95;;;2.60;;
21270;SDS011;10795;50.796;3.860;2022-07-17T12:50:44;2.25;;;1.92;;
21270;SDS011;10795;50.796;3.860;2022-07-17T12:53:11;5.50;;;2.90;;
21270;SDS011;10795;50.796;3.860;2022-07-17T12:55:36;3.35;;;2.25;;
21270;SDS011;10795;50.796;3.860;2022-07-17T12:58:03;3.78;;;2.40;;
21270;SDS011;10795;50.796;3.860;2022-07-17T13:00:29;2.42;;;1.85;;
21270;SDS011;10795;50.796;3.860;2022-07-17T13:02:55;2.88;;;1.95;;
21270;SDS011;10795;50.796;3.860;2022-07-17T13:05:21;4.13;;;2.35;;
21270;SDS011;10795;50.796;3.860;2022-07-17T13:07:46;4.00;;;2.38;;
21270;SDS011;10795;50.796;3.860;2022-07-17T13:10:12;3.53;;;2.72;;
21270;SDS011;10795;50.796;3.860;2022-07-17T13:12:38;4.25;;;2.72;;
21270;SDS011;10795;50.796;3.860;2022-07-17T13:15:04;4.05;;;2.60;;
21270;SDS011;10795;50.796;3.860;2022-07-17T13:17:30;4.32;;;2.47;;
21270;SDS011;10795;50.796;3.860;2022-07-17T13:19:56;2.95;;;2.03;;
21270;SDS011;10795;50.796;3.860;2022-07-17T13:22:22;2.38;;;2.13;;
21270;SDS011;10795;50.796;3.860;2022-07-17T13:24:47;3.92;;;2.58;;
21270;SDS011;10795;50.796;3.860;2022-07-17T13:27:13;3.97;;;2.60;;
21270;SDS011;10795;50.796;3.860;2022-07-17T13:29:39;2.53;;;2.22;;
21270;SDS011;10795;50.796;3.860;2022-07-17T13:32:05;4.05;;;3.00;;
21270;SDS011;10795;50.796;3.860;2022-07-17T13:34:30;4.38;;;2.60;;
21270;SDS011;10795;50.796;3.860;2022-07-17T13:36:56;3.30;;;2.47;;
21270;SDS011;10795;50.796;3.860;2022-07-17T13:39:22;4.13;;;2.88;;
21270;SDS011;10795;50.796;3.860;2022-07-17T13:41:51;3.20;;;2.40;;
21270;SDS011;10795;50.796;3.860;2022-07-17T13:44:16;3.78;;;2.70;;
21270;SDS011;10795;50.796;3.860;2022-07-17T13:46:42;2.60;;;2.40;;
21270;SDS011;10795;50.796;3.860;2022-07-17T13:49:08;2.80;;;2.30;;
21270;SDS011;10795;50.796;3.860;2022-07-17T13:51:34;6.13;;;2.70;;
21270;SDS011;10795;50.796;3.860;2022-07-17T13:54:00;4.40;;;2.83;;
21270;SDS011;10795;50.796;3.860;2022-07-17T13:56:26;2.35;;;2.13;;
21270;SDS011;10795;50.796;3.860;2022-07-17T13:58:52;3.28;;;2.58;;
21270;SDS011;10795;50.796;3.860;2022-07-17T14:01:18;3.00;;;2.50;;
21270;SDS011;10795;50.796;3.860;2022-07-17T14:03:46;3.50;;;2.67;;
21270;SDS011;10795;50.796;3.860;2022-07-17T14:06:12;2.75;;;2.38;;
21270;SDS011;10795;50.796;3.860;2022-07-17T14:08:37;3.03;;;2.67;;
21270;SDS011;10795;50.796;3.860;2022-07-17T14:11:03;2.95;;;2.60;;
21270;SDS011;10795;50.796;3.860;2022-07-17T14:13:29;3.50;;;2.67;;
21270;SDS011;10795;50.796;3.860;2022-07-17T14:15:55;4.22;;;2.67;;
21270;SDS011;10795;50.796;3.860;2022-07-17T14:18:21;3.05;;;2.63;;
21270;SDS011;10795;50.796;3.860;2022-07-17T14:20:47;2.80;;;2.47;;
21270;SDS011;10795;50.796;3.860;2022-07-17T14:23:13;4.85;;;2.95;;
21270;SDS011;10795;50.796;3.860;2022-07-17T14:25:39;3.38;;;2.50;;
21270;SDS011;10795;50.796;3.860;2022-07-17T14:28:04;2.63;;;2.40;;
21270;SDS011;10795;50.796;3.860;2022-07-17T14:30:30;2.88;;;2.20;;
21270;SDS011;10795;50.796;3.860;2022-07-17T14:32:57;2.92;;;2.30;;
21270;SDS011;10795;50.796;3.860;2022-07-17T14:35:23;2.83;;;2.53;;
21270;SDS011;10795;50.796;3.860;2022-07-17T14:37:49;2.90;;;2.60;;
21270;SDS011;10795;50.796;3.860;2022-07-17T14:40:15;2.83;;;2.55;;
21270;SDS011;10795;50.796;3.860;2022-07-17T14:42:41;3.30;;;2.90;;
21270;SDS011;10795;50.796;3.860;2022-07-17T14:45:07;3.25;;;2.60;;
21270;SDS011;10795;50.796;3.860;2022-07-17T14:47:34;2.88;;;2.65;;
21270;SDS011;10795;50.796;3.860;2022-07-17T14:50:00;4.25;;;2.97;;
21270;SDS011;10795;50.796;3.860;2022-07-17T14:52:26;4.18;;;2.90;;
21270;SDS011;10795;50.796;3.860;2022-07-17T14:54:52;5.38;;;2.70;;
21270;SDS011;10795;50.796;3.860;2022-07-17T14:57:17;2.72;;;2.50;;
21270;SDS011;10795;50.796;3.860;2022-07-17T14:59:43;4.53;;;2.70;;
21270;SDS011;10795;50.796;3.860;2022-07-17T15:02:09;3.38;;;2.60;;
21270;SDS011;10795;50.796;3.860;2022-07-17T15:04:35;2.90;;;2.55;;
21270;SDS011;10795;50.796;3.860;2022-07-17T15:07:01;4.95;;;2.80;;
21270;SDS011;10795;50.796;3.860;2022-07-17T15:09:28;4.82;;;2.70;;
21270;SDS011;10795;50.796;3.860;2022-07-17T15:11:54;3.58;;;2.80;;
21270;SDS011;10795;50.796;3.860;2022-07-17T15:14:19;2.78;;;2.58;;
21270;SDS011;10795;50.796;3.860;2022-07-17T15:16:45;2.85;;;2.25;;
21270;SDS011;10795;50.796;3.860;2022-07-17T15:19:11;2.40;;;2.20;;